createdAt,value
2017-11-23T00:00:01.604Z,15
2017-11-23T00:05:02.269Z,15
2017-11-23T00:10:01.486Z,15
2017-11-23T00:15:01.976Z,15
2017-11-23T00:20:01.374Z,15
2017-11-23T00:25:01.788Z,15
2017-11-23T00:30:01.694Z,15
2017-11-23T00:35:01.789Z,15
2017-11-23T00:40:02.009Z,15
2017-11-23T00:45:01.841Z,15
2017-11-23T00:50:01.670Z,15
2017-11-23T00:55:02.235Z,15
2017-11-23T01:00:01.753Z,15
2017-11-23T01:05:02.068Z,15
2017-11-23T01:10:01.768Z,15
2017-11-23T01:15:01.721Z,15
2017-11-23T01:20:01.493Z,15
2017-11-23T01:25:01.548Z,15
2017-11-23T01:30:01.836Z,15
2017-11-23T01:35:01.617Z,15
2017-11-23T01:40:01.515Z,15
2017-11-23T01:45:03.071Z,15
2017-11-23T01:50:01.778Z,15
2017-11-23T01:55:01.969Z,15
2017-11-23T02:00:01.975Z,15
2017-11-23T02:05:02.690Z,15
2017-11-23T02:10:01.367Z,15
2017-11-23T02:15:01.491Z,15
2017-11-23T02:20:01.305Z,15
2017-11-23T02:25:01.671Z,15
2017-11-23T02:30:02.189Z,15
2017-11-23T02:35:01.830Z,15
2017-11-23T02:40:02.179Z,15
2017-11-23T02:45:02.043Z,15
2017-11-23T02:50:02.020Z,15
2017-11-23T02:55:01.644Z,15
2017-11-23T03:00:02.237Z,15
2017-11-23T03:05:01.305Z,15
2017-11-23T03:10:01.297Z,15
2017-11-23T03:15:02.044Z,15
2017-11-23T03:20:01.658Z,15
2017-11-23T03:25:01.941Z,15
2017-11-23T03:30:01.906Z,15
2017-11-23T03:35:02.329Z,15
2017-11-23T03:40:01.499Z,15
2017-11-23T03:45:02.080Z,15
2017-11-23T03:50:01.670Z,15
2017-11-23T03:55:02.431Z,15
2017-11-23T04:00:02.007Z,15
2017-11-23T04:05:02.041Z,15
2017-11-23T04:10:02.009Z,15
2017-11-23T04:20:01.748Z,15
2017-11-23T04:25:01.450Z,15
2017-11-23T04:30:01.882Z,15
2017-11-23T04:35:01.272Z,15
2017-11-23T04:40:01.375Z,15
2017-11-23T04:45:02.255Z,15
2017-11-23T04:50:01.303Z,15
2017-11-23T04:55:01.740Z,15
2017-11-23T05:00:01.783Z,15
2017-11-23T05:05:02.509Z,15
2017-11-23T05:10:01.355Z,15
2017-11-23T05:15:02.166Z,15
2017-11-23T05:20:01.772Z,15
2017-11-23T05:25:01.689Z,15
2017-11-23T05:30:02.057Z,15
2017-11-23T05:35:02.044Z,15
2017-11-23T05:40:03.165Z,15
2017-11-23T05:45:01.914Z,15
2017-11-23T05:50:01.933Z,15
2017-11-23T05:55:01.674Z,15
2017-11-23T06:00:02.020Z,15
2017-11-23T06:05:02.133Z,15
2017-11-23T06:10:01.739Z,15
2017-11-23T06:15:02.396Z,15
2017-11-23T06:20:01.782Z,15
2017-11-23T06:25:01.706Z,15
2017-11-23T06:30:01.909Z,15
2017-11-23T06:35:02.890Z,15
2017-11-23T06:40:01.583Z,15
2017-11-23T06:45:01.471Z,15
2017-11-23T06:50:01.557Z,15
2017-11-23T06:55:02.438Z,15
2017-11-23T07:00:01.484Z,15
2017-11-23T07:05:01.461Z,15
2017-11-23T07:10:02.581Z,15
2017-11-23T07:15:01.451Z,15
2017-11-23T07:20:01.733Z,15
2017-11-23T07:25:01.210Z,15
2017-11-23T07:30:03.159Z,15
2017-11-23T07:35:01.486Z,15
2017-11-23T07:40:01.349Z,15
2017-11-23T07:45:01.906Z,15
2017-11-23T07:50:02.182Z,15
2017-11-23T07:55:01.790Z,15
2017-11-23T08:00:02.016Z,15
2017-11-23T08:05:01.777Z,15
2017-11-23T08:10:01.716Z,15
2017-11-23T08:15:01.853Z,15
2017-11-23T08:20:01.537Z,15
2017-11-23T08:25:01.815Z,15
2017-11-23T08:30:01.908Z,15
2017-11-23T08:35:01.970Z,15
2017-11-23T08:40:02.494Z,15
2017-11-23T08:45:01.244Z,15
2017-11-23T08:50:01.276Z,15
2017-11-23T08:55:01.384Z,15
2017-11-23T09:00:01.568Z,15
2017-11-23T09:05:01.510Z,15
2017-11-23T09:10:01.642Z,15
2017-11-23T09:15:01.799Z,15
2017-11-23T09:20:01.211Z,15
2017-11-23T09:25:01.201Z,15
2017-11-23T09:30:01.578Z,15
2017-11-23T09:35:01.375Z,15
2017-11-23T09:40:01.373Z,15
2017-11-23T09:45:01.880Z,15
2017-11-23T09:50:01.808Z,15
2017-11-23T09:55:01.240Z,15
2017-11-23T10:00:02.640Z,15
2017-11-23T10:05:01.619Z,15
2017-11-23T10:10:01.206Z,15
2017-11-23T10:15:01.749Z,15
2017-11-23T10:20:02.035Z,15
2017-11-23T10:25:01.835Z,15
2017-11-23T10:30:01.356Z,15
2017-11-23T10:35:02.069Z,15
2017-11-23T10:40:01.868Z,15
2017-11-23T10:45:01.459Z,15
2017-11-23T10:50:01.668Z,15
2017-11-23T10:55:01.430Z,15
2017-11-23T11:00:01.657Z,15
2017-11-23T11:05:02.352Z,15
2017-11-23T11:10:01.857Z,15
2017-11-23T11:15:01.401Z,15
2017-11-23T11:20:01.991Z,15
2017-11-23T11:25:02.303Z,15.3
2017-11-23T11:30:01.780Z,15.3
2017-11-23T11:35:01.701Z,15
2017-11-23T11:40:01.511Z,15
2017-11-23T11:45:01.718Z,15.3
2017-11-23T11:50:01.479Z,15.4
2017-11-23T11:55:01.863Z,15.6
2017-11-23T12:00:02.190Z,15.6
2017-11-23T12:05:01.855Z,15.6
2017-11-23T12:10:01.818Z,15.7
2017-11-23T12:15:01.341Z,15.7
2017-11-23T12:20:02.537Z,15.7
2017-11-23T12:25:01.459Z,15.7
2017-11-23T12:30:01.907Z,15.8
2017-11-23T12:35:01.736Z,15.8
2017-11-23T12:40:02.097Z,15.8
2017-11-23T12:45:01.646Z,15.8
2017-11-23T12:50:01.617Z,15.8
2017-11-23T12:55:01.395Z,15.8
2017-11-23T13:00:02.531Z,15.8
2017-11-23T13:05:01.723Z,15.8
2017-11-23T13:10:01.644Z,15.9
2017-11-23T13:15:01.865Z,16
2017-11-23T13:20:02.357Z,15.9
2017-11-23T13:25:02.106Z,15.9
2017-11-23T13:30:01.936Z,16
2017-11-23T13:35:01.466Z,16
2017-11-23T13:40:02.314Z,16
2017-11-23T13:45:01.415Z,15.7
2017-11-23T13:50:01.508Z,15.7
2017-11-23T13:55:01.183Z,15.7
2017-11-23T14:00:02.173Z,15.7
2017-11-23T14:05:01.556Z,15.6
2017-11-23T14:10:01.778Z,15.6
2017-11-23T14:15:01.342Z,15.6
2017-11-23T14:20:02.202Z,15.7
2017-11-23T14:25:01.456Z,15.7
2017-11-23T14:30:02.106Z,15.6
2017-11-23T14:35:02.713Z,15.8
2017-11-23T14:40:01.951Z,15.7
2017-11-23T14:45:01.637Z,15.8
2017-11-23T14:50:02.628Z,15.8
2017-11-23T14:55:02.217Z,15.9
2017-11-23T15:00:01.949Z,15.9
2017-11-23T15:05:02.517Z,15.9
2017-11-23T15:10:01.192Z,15.9
2017-11-23T15:15:01.674Z,15.9
2017-11-23T15:20:02.564Z,15.9
2017-11-23T15:25:01.855Z,15.9
2017-11-23T15:30:02.048Z,15.9
2017-11-23T15:35:01.411Z,15.8
2017-11-23T15:40:02.677Z,15.8
2017-11-23T15:45:01.977Z,15.8
2017-11-23T15:50:01.802Z,15.8
2017-11-23T15:55:01.286Z,15.8
2017-11-23T16:00:02.023Z,15.8
2017-11-23T16:05:01.652Z,15.8
2017-11-23T16:10:02.010Z,15.8
2017-11-23T16:15:02.003Z,15.8
2017-11-23T16:20:01.651Z,15.8
2017-11-23T16:25:01.901Z,15.8
2017-11-23T16:30:02.390Z,15.8
2017-11-23T16:35:01.881Z,15.8
2017-11-23T16:40:01.421Z,15.8
2017-11-23T16:45:01.264Z,15.8
2017-11-23T16:50:01.512Z,15.8
2017-11-23T16:55:01.425Z,15.7
2017-11-23T17:00:01.567Z,15.7
2017-11-23T17:05:01.742Z,15.7
2017-11-23T17:10:01.339Z,15.6
2017-11-23T17:15:01.621Z,15.6
2017-11-23T17:20:02.011Z,15.2
2017-11-23T17:25:01.984Z,15
2017-11-23T17:30:02.130Z,15
2017-11-23T17:35:01.579Z,15
2017-11-23T17:40:02.780Z,15
2017-11-23T17:45:01.196Z,15
2017-11-23T17:50:01.975Z,15
2017-11-23T17:55:01.328Z,15
2017-11-23T18:00:01.665Z,15
2017-11-23T18:05:01.652Z,15
2017-11-23T18:10:01.562Z,15
2017-11-23T18:15:02.256Z,15
2017-11-23T18:20:02.054Z,15
2017-11-23T18:25:01.810Z,15
2017-11-23T18:30:02.072Z,15
2017-11-23T18:35:02.419Z,15
2017-11-23T18:40:01.591Z,15
2017-11-23T18:45:01.554Z,15
2017-11-23T18:50:02.496Z,15
2017-11-23T18:55:01.905Z,15
2017-11-23T19:00:01.656Z,15
2017-11-23T19:05:01.796Z,15
2017-11-23T19:10:02.430Z,15
2017-11-23T19:15:01.772Z,15
2017-11-23T19:20:01.584Z,15
2017-11-23T19:25:01.946Z,15
2017-11-23T19:30:02.412Z,15
2017-11-23T19:35:01.380Z,15
2017-11-23T19:40:02.251Z,15
2017-11-23T19:45:01.870Z,15
2017-11-23T19:50:01.759Z,15
2017-11-23T19:55:02.159Z,15
2017-11-23T20:00:01.404Z,15
2017-11-23T20:05:02.049Z,15
2017-11-23T20:10:01.560Z,15
2017-11-23T20:15:01.661Z,15
2017-11-23T20:20:01.868Z,15
2017-11-23T20:25:01.355Z,15
2017-11-23T20:30:01.787Z,15
2017-11-23T20:35:02.125Z,15
2017-11-23T20:40:02.197Z,15
2017-11-23T20:45:02.282Z,15
2017-11-23T20:50:01.670Z,15
2017-11-23T20:55:01.906Z,15
2017-11-23T21:00:01.384Z,15
2017-11-23T21:05:01.676Z,15
2017-11-23T21:10:02.140Z,15
2017-11-23T21:15:02.023Z,15
2017-11-23T21:20:01.919Z,15
2017-11-23T21:25:01.509Z,15
2017-11-23T21:30:01.928Z,15
2017-11-23T21:35:02.381Z,15
2017-11-23T21:40:01.997Z,15
2017-11-23T21:45:01.423Z,15
2017-11-23T21:50:02.372Z,15
2017-11-23T21:55:01.175Z,15
2017-11-23T22:00:01.799Z,15
2017-11-23T22:05:01.997Z,15
2017-11-23T22:10:02.074Z,15
2017-11-23T22:15:02.125Z,15
2017-11-23T22:20:01.493Z,15
2017-11-23T22:25:01.334Z,15
2017-11-23T22:30:01.700Z,15
2017-11-23T22:35:01.872Z,15
2017-11-23T22:40:01.853Z,15
2017-11-23T22:45:01.664Z,15
2017-11-23T22:50:02.143Z,15
2017-11-23T22:55:01.781Z,15
2017-11-23T23:00:01.514Z,15
2017-11-23T23:05:01.790Z,15
2017-11-23T23:10:02.112Z,15
2017-11-23T23:15:01.525Z,15
2017-11-23T23:20:01.303Z,15
2017-11-23T23:25:02.202Z,15
2017-11-23T23:30:01.559Z,15
2017-11-23T23:35:01.956Z,15
2017-11-23T23:40:01.713Z,15
2017-11-23T23:45:02.142Z,15
2017-11-23T23:50:01.834Z,15
2017-11-23T23:55:01.331Z,15
